Unionville, Connecticut
Current Conditions -  °F | °C
As of 12:53 AM on Sunday 23 Nov 2014 (Local Time) from KHFD Reporting Station
Clear Clear  
Wind Chill: 38°   Ceiling: Unl
Heat Index: 43°   Visibility: 10mi
Dew Point: 19°   Wind: 9mph
Humidity: 38%   Direction: 190°S
Pressure: 30.13"   Gusts: NA
Location:  41.76°N, 72.89°W
Report Text: KHFD 230553Z AUTO 19008KT 10SM CLR 06/M07 A3013 RMK AO2 SLP203 T00611072 10061 20050 58007
Loading
Personal Weather Stations






























Interactive Weather Map New forecast layout! Learn more

10-Day Weather Forecast

Advertisements
Track Severe Weather on mobile